N225MV KPHF-KORL
Flight info
| Callsign | N225MV |
|---|---|
| Flight time | 2h 44m |
| Altitude | 30000 |
| Route | COUPN PAACK Q97 JEVED LPERD TTHOR3 |
| Aircraft | SF50/L-SDGRWY/L |
Departure
| Time | 2026-05-04 20:27 |
|---|---|
| Airport | Newport News Williamsburg International Airport (KPHF) |
Arrival
| Time | 2026-05-04 23:11 |
|---|---|
| Airport | Orlando Executive Airport (KORL) |
| Time | Latitude | Longitude | Altitude | Speed | Heading |
|---|---|---|---|---|---|
| 2026-05-04 20:13 | 37.13516 | -76.49914 | 43 ft | 0 kts | 286° |
| 2026-05-04 20:22 | 37.13524 | -76.49919 | 43 ft | 5 kts | 13° |
| 2026-05-04 20:22 | 37.13557 | -76.49896 | 44 ft | 4 kts | 44° |
| 2026-05-04 20:22 | 37.13568 | -76.49883 | 44 ft | 1 kts | 44° |
| 2026-05-04 20:23 | 37.13592 | -76.49853 | 44 ft | 5 kts | 45° |
| 2026-05-04 20:23 | 37.13595 | -76.49836 | 44 ft | 0 kts | 102° |
| 2026-05-04 20:23 | 37.13592 | -76.49803 | 44 ft | 8 kts | 70° |
| 2026-05-04 20:24 | 37.13662 | -76.49773 | 44 ft | 14 kts | 14° |
| 2026-05-04 20:24 | 37.13754 | -76.49747 | 44 ft | 11 kts | 11° |
| 2026-05-04 20:24 | 37.13817 | -76.49732 | 44 ft | 7 kts | 13° |
| 2026-05-04 20:24 | 37.13870 | -76.49716 | 44 ft | 8 kts | 14° |
| 2026-05-04 20:25 | 37.13928 | -76.49699 | 44 ft | 9 kts | 12° |
| 2026-05-04 20:25 | 37.14006 | -76.49678 | 44 ft | 16 kts | 13° |
| 2026-05-04 20:25 | 37.14135 | -76.49640 | 44 ft | 17 kts | 14° |
| 2026-05-04 20:25 | 37.14196 | -76.49612 | 44 ft | 6 kts | 46° |
| 2026-05-04 20:26 | 37.14198 | -76.49554 | 44 ft | 9 kts | 101° |
| 2026-05-04 20:26 | 37.14181 | -76.49464 | 45 ft | 9 kts | 124° |
| 2026-05-04 20:26 | 37.14137 | -76.49461 | 45 ft | 10 kts | 196° |
| 2026-05-04 20:26 | 37.13873 | -76.49537 | 43 ft | 71 kts | 193° |
| 2026-05-04 20:27 | 37.13240 | -76.49762 | 177 ft | 110 kts | 194° |
| 2026-05-04 20:27 | 37.12418 | -76.49943 | 433 ft | 140 kts | 194° |
| 2026-05-04 20:27 | 37.11383 | -76.50225 | 1022 ft | 156 kts | 194° |
| 2026-05-04 20:27 | 37.10312 | -76.50505 | 1895 ft | 156 kts | 192° |
| 2026-05-04 20:28 | 37.09228 | -76.50737 | 2651 ft | 159 kts | 192° |
| 2026-05-04 20:28 | 37.08135 | -76.50957 | 3430 ft | 159 kts | 192° |
| 2026-05-04 20:28 | 37.07035 | -76.51163 | 4187 ft | 161 kts | 192° |
| 2026-05-04 20:28 | 37.05916 | -76.51362 | 4911 ft | 166 kts | 192° |
| 2026-05-04 20:29 | 37.04642 | -76.51583 | 5013 ft | 204 kts | 191° |
| 2026-05-04 20:29 | 37.03144 | -76.51853 | 5010 ft | 226 kts | 192° |
| 2026-05-04 20:29 | 37.01542 | -76.52139 | 5010 ft | 238 kts | 191° |
| 2026-05-04 20:29 | 36.99883 | -76.52448 | 5008 ft | 243 kts | 194° |
| 2026-05-04 20:30 | 36.98406 | -76.53317 | 5458 ft | 224 kts | 216° |
| 2026-05-04 20:30 | 36.97180 | -76.54389 | 6015 ft | 216 kts | 216° |
| 2026-05-04 20:30 | 36.95857 | -76.55407 | 6096 ft | 227 kts | 211° |
| 2026-05-04 20:30 | 36.94466 | -76.56344 | 6428 ft | 227 kts | 211° |
| 2026-05-04 20:31 | 36.93077 | -76.57289 | 6691 ft | 228 kts | 211° |
| 2026-05-04 20:31 | 36.91692 | -76.58258 | 6954 ft | 229 kts | 212° |
| 2026-05-04 20:31 | 36.90305 | -76.59227 | 7217 ft | 228 kts | 211° |
| 2026-05-04 20:31 | 36.88908 | -76.60191 | 7448 ft | 230 kts | 211° |
| 2026-05-04 20:32 | 36.87507 | -76.61156 | 7708 ft | 231 kts | 211° |
| 2026-05-04 20:32 | 36.86098 | -76.62135 | 7946 ft | 232 kts | 212° |
| 2026-05-04 20:32 | 36.84661 | -76.63130 | 8188 ft | 234 kts | 212° |
| 2026-05-04 20:32 | 36.83240 | -76.64112 | 8426 ft | 234 kts | 212° |
| 2026-05-04 20:33 | 36.81859 | -76.65064 | 9093 ft | 216 kts | 212° |
| 2026-05-04 20:33 | 36.80644 | -76.65900 | 10010 ft | 189 kts | 213° |
| 2026-05-04 20:33 | 36.79551 | -76.66663 | 10726 ft | 177 kts | 215° |
| 2026-05-04 20:33 | 36.78452 | -76.67435 | 11102 ft | 184 kts | 216° |
| 2026-05-04 20:34 | 36.77326 | -76.68210 | 11557 ft | 186 kts | 216° |
| 2026-05-04 20:34 | 36.76186 | -76.68993 | 11991 ft | 189 kts | 217° |
| 2026-05-04 20:34 | 36.75028 | -76.69788 | 12419 ft | 191 kts | 218° |
| 2026-05-04 20:34 | 36.73848 | -76.70604 | 12852 ft | 192 kts | 218° |
| 2026-05-04 20:35 | 36.72687 | -76.71404 | 13268 ft | 194 kts | 218° |
| 2026-05-04 20:35 | 36.71483 | -76.72233 | 13700 ft | 195 kts | 218° |
| 2026-05-04 20:35 | 36.70297 | -76.73056 | 14121 ft | 196 kts | 218° |
| 2026-05-04 20:35 | 36.69105 | -76.73873 | 14523 ft | 197 kts | 218° |
| 2026-05-04 20:36 | 36.67900 | -76.74706 | 14913 ft | 198 kts | 219° |
| 2026-05-04 20:36 | 36.66689 | -76.75539 | 15320 ft | 199 kts | 219° |
| 2026-05-04 20:36 | 36.65473 | -76.76376 | 15704 ft | 200 kts | 219° |
| 2026-05-04 20:36 | 36.64251 | -76.77218 | 16098 ft | 201 kts | 219° |
| 2026-05-04 20:37 | 36.63022 | -76.78062 | 16465 ft | 202 kts | 219° |
| 2026-05-04 20:37 | 36.61787 | -76.78912 | 16818 ft | 203 kts | 219° |
| 2026-05-04 20:37 | 36.60544 | -76.79765 | 17178 ft | 205 kts | 219° |
| 2026-05-04 20:37 | 36.59294 | -76.80624 | 17535 ft | 206 kts | 219° |
| 2026-05-04 20:38 | 36.58039 | -76.81487 | 17882 ft | 207 kts | 219° |
| 2026-05-04 20:38 | 36.56774 | -76.82355 | 18214 ft | 208 kts | 219° |
| 2026-05-04 20:38 | 36.55504 | -76.83227 | 18551 ft | 209 kts | 219° |
| 2026-05-04 20:38 | 36.54227 | -76.84101 | 18882 ft | 210 kts | 219° |
| 2026-05-04 20:39 | 36.52944 | -76.84981 | 19209 ft | 211 kts | 219° |
| 2026-05-04 20:39 | 36.51655 | -76.85866 | 19530 ft | 212 kts | 219° |
| 2026-05-04 20:39 | 36.50357 | -76.86754 | 19835 ft | 213 kts | 219° |
| 2026-05-04 20:39 | 36.49053 | -76.87646 | 20150 ft | 214 kts | 219° |
| 2026-05-04 20:40 | 36.47745 | -76.88544 | 20449 ft | 215 kts | 219° |
| 2026-05-04 20:40 | 36.46429 | -76.89442 | 20744 ft | 216 kts | 219° |
| 2026-05-04 20:40 | 36.45108 | -76.90348 | 21042 ft | 217 kts | 219° |
| 2026-05-04 20:40 | 36.43787 | -76.91249 | 21371 ft | 216 kts | 219° |
| 2026-05-04 20:41 | 36.42470 | -76.92147 | 21684 ft | 216 kts | 220° |
| 2026-05-04 20:41 | 36.41158 | -76.93047 | 21993 ft | 216 kts | 219° |
| 2026-05-04 20:41 | 36.39846 | -76.93943 | 22297 ft | 215 kts | 219° |
| 2026-05-04 20:41 | 36.38534 | -76.94840 | 22598 ft | 215 kts | 220° |
| 2026-05-04 20:42 | 36.37228 | -76.95731 | 22898 ft | 214 kts | 220° |
| 2026-05-04 20:42 | 36.35923 | -76.96623 | 23198 ft | 214 kts | 220° |
| 2026-05-04 20:42 | 36.34616 | -76.97513 | 23493 ft | 214 kts | 220° |
| 2026-05-04 20:42 | 36.33316 | -76.98398 | 23788 ft | 213 kts | 220° |
| 2026-05-04 20:43 | 36.32014 | -76.99285 | 24083 ft | 213 kts | 220° |
| 2026-05-04 20:43 | 36.30721 | -77.00168 | 24371 ft | 213 kts | 220° |
| 2026-05-04 20:43 | 36.29426 | -77.01050 | 24676 ft | 211 kts | 220° |
| 2026-05-04 20:43 | 36.28144 | -77.01919 | 24987 ft | 210 kts | 220° |
| 2026-05-04 20:44 | 36.26864 | -77.02788 | 25294 ft | 209 kts | 221° |
| 2026-05-04 20:44 | 36.25594 | -77.03653 | 25593 ft | 208 kts | 221° |
| 2026-05-04 20:44 | 36.24333 | -77.04513 | 25895 ft | 206 kts | 221° |
| 2026-05-04 20:44 | 36.23080 | -77.05364 | 26202 ft | 205 kts | 221° |
| 2026-05-04 20:45 | 36.21834 | -77.06211 | 26497 ft | 204 kts | 221° |
| 2026-05-04 20:45 | 36.20593 | -77.07057 | 26781 ft | 203 kts | 222° |
| 2026-05-04 20:45 | 36.19357 | -77.07896 | 27085 ft | 201 kts | 222° |
| 2026-05-04 20:45 | 36.18147 | -77.08718 | 27360 ft | 201 kts | 222° |
| 2026-05-04 20:46 | 36.16923 | -77.09546 | 27647 ft | 200 kts | 222° |
| 2026-05-04 20:46 | 36.15712 | -77.10367 | 27934 ft | 198 kts | 223° |
| 2026-05-04 20:46 | 36.14508 | -77.11183 | 28218 ft | 197 kts | 223° |
| 2026-05-04 20:46 | 36.13310 | -77.11995 | 28485 ft | 195 kts | 223° |
| 2026-05-04 20:47 | 36.12120 | -77.12803 | 28755 ft | 194 kts | 223° |
| 2026-05-04 20:47 | 36.10939 | -77.13600 | 29015 ft | 193 kts | 224° |
| 2026-05-04 20:47 | 36.09762 | -77.14398 | 29262 ft | 192 kts | 224° |
| 2026-05-04 20:47 | 36.08591 | -77.15188 | 29525 ft | 191 kts | 224° |
| 2026-05-04 20:48 | 36.07434 | -77.15973 | 29775 ft | 189 kts | 224° |
| 2026-05-04 20:48 | 36.06280 | -77.16755 | 30008 ft | 189 kts | 224° |
| 2026-05-04 20:48 | 36.05100 | -77.17560 | 30027 ft | 198 kts | 224° |
| 2026-05-04 20:48 | 36.03866 | -77.18400 | 30036 ft | 207 kts | 223° |
| 2026-05-04 20:49 | 36.02571 | -77.19272 | 30037 ft | 215 kts | 223° |
| 2026-05-04 20:49 | 36.01238 | -77.20170 | 30036 ft | 222 kts | 222° |
| 2026-05-04 20:49 | 35.99863 | -77.21096 | 30036 ft | 228 kts | 222° |
| 2026-05-04 20:49 | 35.98452 | -77.22047 | 30038 ft | 234 kts | 221° |
| 2026-05-04 20:50 | 35.97010 | -77.23018 | 30035 ft | 239 kts | 221° |
| 2026-05-04 20:50 | 35.95527 | -77.24019 | 30037 ft | 246 kts | 221° |
| 2026-05-04 20:50 | 35.94010 | -77.25042 | 30036 ft | 251 kts | 220° |
| 2026-05-04 20:50 | 35.92507 | -77.26142 | 30039 ft | 249 kts | 226° |
| 2026-05-04 20:51 | 35.91152 | -77.27458 | 30044 ft | 250 kts | 229° |
| 2026-05-04 20:51 | 35.89768 | -77.28790 | 30044 ft | 254 kts | 228° |
| 2026-05-04 20:51 | 35.88364 | -77.30132 | 30044 ft | 257 kts | 228° |
| 2026-05-04 20:51 | 35.86950 | -77.31499 | 30035 ft | 260 kts | 228° |
| 2026-05-04 20:52 | 35.85520 | -77.32882 | 30035 ft | 262 kts | 228° |
| 2026-05-04 20:52 | 35.84081 | -77.34272 | 30037 ft | 264 kts | 228° |
| 2026-05-04 20:52 | 35.82628 | -77.35672 | 30037 ft | 266 kts | 228° |
| 2026-05-04 20:52 | 35.81167 | -77.37082 | 30035 ft | 268 kts | 228° |
| 2026-05-04 20:53 | 35.79695 | -77.38503 | 30035 ft | 269 kts | 228° |
| 2026-05-04 20:53 | 35.78215 | -77.39926 | 30036 ft | 271 kts | 227° |
| 2026-05-04 20:53 | 35.76730 | -77.41356 | 30036 ft | 272 kts | 228° |
| 2026-05-04 20:53 | 35.75256 | -77.42773 | 30035 ft | 272 kts | 227° |
| 2026-05-04 20:54 | 35.73745 | -77.44225 | 30036 ft | 273 kts | 227° |
| 2026-05-04 20:54 | 35.72243 | -77.45669 | 30034 ft | 274 kts | 227° |
| 2026-05-04 20:54 | 35.70741 | -77.47111 | 30035 ft | 273 kts | 227° |
| 2026-05-04 20:54 | 35.69267 | -77.48528 | 30035 ft | 272 kts | 227° |
| 2026-05-04 20:55 | 35.67757 | -77.49976 | 30034 ft | 271 kts | 227° |
| 2026-05-04 20:55 | 35.66277 | -77.51394 | 30039 ft | 269 kts | 228° |
| 2026-05-04 20:55 | 35.64823 | -77.52790 | 30032 ft | 269 kts | 228° |
| 2026-05-04 20:55 | 35.63345 | -77.54210 | 30034 ft | 270 kts | 228° |
| 2026-05-04 20:56 | 35.61857 | -77.55638 | 30032 ft | 272 kts | 227° |
| 2026-05-04 20:56 | 35.60362 | -77.57068 | 30033 ft | 273 kts | 227° |
| 2026-05-04 20:56 | 35.58863 | -77.58503 | 30034 ft | 273 kts | 227° |
| 2026-05-04 20:56 | 35.57363 | -77.59938 | 30035 ft | 274 kts | 227° |
| 2026-05-04 20:57 | 35.55859 | -77.61374 | 30035 ft | 273 kts | 227° |
| 2026-05-04 20:57 | 35.54369 | -77.62800 | 30039 ft | 272 kts | 227° |
| 2026-05-04 20:57 | 35.52877 | -77.64224 | 30033 ft | 271 kts | 227° |
| 2026-05-04 20:57 | 35.51889 | -77.65168 | 30037 ft | 271 kts | 227° |
| 2026-05-04 20:58 | 35.50404 | -77.66587 | 30032 ft | 270 kts | 227° |
| 2026-05-04 20:58 | 35.48922 | -77.68002 | 30036 ft | 270 kts | 227° |
| 2026-05-04 20:58 | 35.47437 | -77.69415 | 30032 ft | 270 kts | 227° |
| 2026-05-04 20:58 | 35.45953 | -77.70831 | 30032 ft | 270 kts | 227° |
| 2026-05-04 20:59 | 35.44479 | -77.72229 | 30033 ft | 264 kts | 227° |
| 2026-05-04 20:59 | 35.43064 | -77.73565 | 30028 ft | 250 kts | 228° |
| 2026-05-04 20:59 | 35.41721 | -77.74848 | 30025 ft | 241 kts | 229° |
| 2026-05-04 20:59 | 35.40398 | -77.76122 | 30025 ft | 244 kts | 229° |
| 2026-05-04 21:00 | 35.39047 | -77.77413 | 30034 ft | 249 kts | 228° |
| 2026-05-04 21:00 | 35.37671 | -77.78715 | 30034 ft | 250 kts | 228° |
| 2026-05-04 21:00 | 35.36294 | -77.80017 | 30036 ft | 249 kts | 228° |
| 2026-05-04 21:00 | 35.34934 | -77.81311 | 30035 ft | 247 kts | 228° |
| 2026-05-04 21:01 | 35.33628 | -77.82655 | 30038 ft | 243 kts | 231° |
| 2026-05-04 21:01 | 35.32207 | -77.83856 | 30036 ft | 254 kts | 220° |
| 2026-05-04 21:01 | 35.30551 | -77.84738 | 30036 ft | 266 kts | 210° |
| 2026-05-04 21:01 | 35.28698 | -77.85235 | 30038 ft | 279 kts | 199° |
| 2026-05-04 21:02 | 35.26723 | -77.85330 | 30040 ft | 286 kts | 193° |
| 2026-05-04 21:02 | 35.24737 | -77.85383 | 30042 ft | 285 kts | 194° |
| 2026-05-04 21:02 | 35.22759 | -77.85440 | 30042 ft | 284 kts | 193° |
| 2026-05-04 21:02 | 35.20790 | -77.85483 | 30041 ft | 282 kts | 193° |
| 2026-05-04 21:03 | 35.18829 | -77.85526 | 30040 ft | 281 kts | 193° |
| 2026-05-04 21:03 | 35.16874 | -77.85570 | 30038 ft | 281 kts | 193° |
| 2026-05-04 21:03 | 35.14916 | -77.85617 | 30038 ft | 282 kts | 193° |
| 2026-05-04 21:03 | 35.12952 | -77.85664 | 30040 ft | 283 kts | 193° |
| 2026-05-04 21:04 | 35.10973 | -77.85710 | 30042 ft | 284 kts | 193° |
| 2026-05-04 21:04 | 35.09000 | -77.85755 | 30042 ft | 284 kts | 193° |
| 2026-05-04 21:04 | 35.07031 | -77.85799 | 30041 ft | 283 kts | 193° |
| 2026-05-04 21:04 | 35.05061 | -77.85843 | 30041 ft | 283 kts | 193° |
| 2026-05-04 21:05 | 35.03095 | -77.85890 | 30040 ft | 282 kts | 193° |
| 2026-05-04 21:05 | 35.01132 | -77.85938 | 30040 ft | 282 kts | 193° |
| 2026-05-04 21:05 | 34.99167 | -77.85981 | 30040 ft | 282 kts | 193° |
| 2026-05-04 21:05 | 34.97213 | -77.86026 | 30041 ft | 281 kts | 193° |
| 2026-05-04 21:06 | 34.95252 | -77.86072 | 30040 ft | 282 kts | 192° |
| 2026-05-04 21:06 | 34.93293 | -77.86114 | 30040 ft | 281 kts | 192° |
| 2026-05-04 21:06 | 34.91339 | -77.86169 | 30049 ft | 279 kts | 194° |
| 2026-05-04 21:06 | 34.89409 | -77.86326 | 30048 ft | 277 kts | 196° |
| 2026-05-04 21:07 | 34.87490 | -77.86508 | 30048 ft | 278 kts | 194° |
| 2026-05-04 21:07 | 34.85540 | -77.86552 | 30048 ft | 282 kts | 191° |
| 2026-05-04 21:07 | 34.83574 | -77.86538 | 30048 ft | 281 kts | 191° |
| 2026-05-04 21:07 | 34.81652 | -77.86565 | 30047 ft | 280 kts | 192° |
| 2026-05-04 21:08 | 34.79707 | -77.86619 | 30047 ft | 279 kts | 192° |
| 2026-05-04 21:08 | 34.77763 | -77.86660 | 30048 ft | 280 kts | 192° |
| 2026-05-04 21:08 | 34.75782 | -77.86690 | 30047 ft | 279 kts | 192° |
| 2026-05-04 21:08 | 34.73872 | -77.86725 | 30048 ft | 279 kts | 192° |
| 2026-05-04 21:09 | 34.71937 | -77.86756 | 30048 ft | 270 kts | 192° |
| 2026-05-04 21:09 | 34.70096 | -77.86785 | 30053 ft | 259 kts | 193° |
| 2026-05-04 21:09 | 34.68312 | -77.86825 | 30055 ft | 256 kts | 193° |
| 2026-05-04 21:09 | 34.66568 | -77.86869 | 30056 ft | 261 kts | 193° |
| 2026-05-04 21:10 | 34.64728 | -77.86903 | 30065 ft | 266 kts | 192° |
| 2026-05-04 21:10 | 34.62879 | -77.86930 | 30070 ft | 265 kts | 192° |
| 2026-05-04 21:10 | 34.61021 | -77.86960 | 30068 ft | 261 kts | 192° |
| 2026-05-04 21:10 | 34.59212 | -77.86996 | 30063 ft | 259 kts | 192° |
| 2026-05-04 21:11 | 34.57426 | -77.87033 | 30061 ft | 261 kts | 192° |
| 2026-05-04 21:11 | 34.55602 | -77.87065 | 30064 ft | 263 kts | 192° |
| 2026-05-04 21:11 | 34.53766 | -77.87098 | 30067 ft | 265 kts | 192° |
| 2026-05-04 21:11 | 34.51932 | -77.87129 | 30068 ft | 263 kts | 192° |
| 2026-05-04 21:12 | 34.50109 | -77.87160 | 30066 ft | 261 kts | 192° |
| 2026-05-04 21:12 | 34.48300 | -77.87195 | 30063 ft | 259 kts | 192° |
| 2026-05-04 21:12 | 34.46497 | -77.87230 | 30064 ft | 260 kts | 192° |
| 2026-05-04 21:12 | 34.44676 | -77.87266 | 30075 ft | 262 kts | 192° |
| 2026-05-04 21:13 | 34.42851 | -77.87324 | 30078 ft | 260 kts | 195° |
| 2026-05-04 21:13 | 34.41111 | -77.87736 | 30081 ft | 250 kts | 206° |
| 2026-05-04 21:13 | 34.39529 | -77.88486 | 30080 ft | 241 kts | 216° |
| 2026-05-04 21:13 | 34.38123 | -77.89521 | 30079 ft | 233 kts | 225° |
| 2026-05-04 21:14 | 34.36920 | -77.90788 | 30084 ft | 227 kts | 232° |
| 2026-05-04 21:14 | 34.35920 | -77.92252 | 30084 ft | 226 kts | 240° |
| 2026-05-04 21:14 | 34.35131 | -77.93889 | 30088 ft | 225 kts | 248° |
| 2026-05-04 21:14 | 34.34571 | -77.95653 | 30094 ft | 224 kts | 256° |
| 2026-05-04 21:15 | 34.34257 | -77.97482 | 30094 ft | 221 kts | 263° |
| 2026-05-04 21:15 | 34.34098 | -77.99321 | 30092 ft | 218 kts | 264° |
| 2026-05-04 21:15 | 34.33923 | -78.01144 | 30089 ft | 218 kts | 264° |
| 2026-05-04 21:15 | 34.33752 | -78.02973 | 30088 ft | 220 kts | 264° |
| 2026-05-04 21:16 | 34.33582 | -78.04829 | 30091 ft | 223 kts | 263° |
| 2026-05-04 21:16 | 34.33266 | -78.06673 | 30091 ft | 225 kts | 258° |
| 2026-05-04 21:16 | 34.32934 | -78.08517 | 30089 ft | 224 kts | 259° |
| 2026-05-04 21:16 | 34.32616 | -78.10348 | 30089 ft | 222 kts | 259° |
| 2026-05-04 21:17 | 34.32299 | -78.12163 | 30084 ft | 219 kts | 259° |
| 2026-05-04 21:17 | 34.31980 | -78.13968 | 30081 ft | 220 kts | 259° |
| 2026-05-04 21:17 | 34.31662 | -78.15788 | 30082 ft | 222 kts | 259° |
| 2026-05-04 21:17 | 34.31342 | -78.17595 | 30086 ft | 224 kts | 259° |
| 2026-05-04 21:18 | 34.31018 | -78.19438 | 30087 ft | 224 kts | 259° |
| 2026-05-04 21:18 | 34.30694 | -78.21270 | 30088 ft | 221 kts | 259° |
| 2026-05-04 21:18 | 34.30376 | -78.23081 | 30075 ft | 219 kts | 259° |
| 2026-05-04 21:18 | 34.30059 | -78.24871 | 30071 ft | 218 kts | 259° |
| 2026-05-04 21:19 | 34.29739 | -78.26677 | 30072 ft | 220 kts | 259° |
| 2026-05-04 21:19 | 34.29417 | -78.28494 | 30075 ft | 223 kts | 259° |
| 2026-05-04 21:19 | 34.29091 | -78.30330 | 30079 ft | 224 kts | 259° |
| 2026-05-04 21:19 | 34.28766 | -78.32162 | 30079 ft | 221 kts | 259° |
| 2026-05-04 21:20 | 34.28443 | -78.33973 | 30076 ft | 219 kts | 259° |
| 2026-05-04 21:20 | 34.28124 | -78.35770 | 30072 ft | 218 kts | 259° |
| 2026-05-04 21:20 | 34.27804 | -78.37571 | 30074 ft | 220 kts | 259° |
| 2026-05-04 21:20 | 34.27479 | -78.39386 | 30077 ft | 222 kts | 259° |
| 2026-05-04 21:21 | 34.27151 | -78.41223 | 30081 ft | 224 kts | 259° |
| 2026-05-04 21:21 | 34.26823 | -78.43051 | 30082 ft | 222 kts | 259° |
| 2026-05-04 21:21 | 34.26498 | -78.44867 | 30084 ft | 220 kts | 259° |
| 2026-05-04 21:21 | 34.26178 | -78.46666 | 30083 ft | 218 kts | 259° |
| 2026-05-04 21:22 | 34.25857 | -78.48463 | 30082 ft | 219 kts | 259° |
| 2026-05-04 21:22 | 34.25534 | -78.50270 | 30083 ft | 221 kts | 259° |
| 2026-05-04 21:22 | 34.25207 | -78.52090 | 30084 ft | 222 kts | 259° |
| 2026-05-04 21:22 | 34.24877 | -78.53922 | 30086 ft | 223 kts | 259° |
| 2026-05-04 21:23 | 34.24551 | -78.55750 | 30089 ft | 222 kts | 259° |
| 2026-05-04 21:23 | 34.24223 | -78.57569 | 30087 ft | 221 kts | 259° |
| 2026-05-04 21:23 | 34.23896 | -78.59377 | 30085 ft | 219 kts | 259° |
| 2026-05-04 21:23 | 34.23574 | -78.61173 | 30083 ft | 218 kts | 259° |
| 2026-05-04 21:24 | 34.23252 | -78.62970 | 30082 ft | 220 kts | 259° |
| 2026-05-04 21:24 | 34.22923 | -78.64781 | 30084 ft | 221 kts | 259° |
| 2026-05-04 21:24 | 34.22593 | -78.66604 | 30086 ft | 223 kts | 259° |
| 2026-05-04 21:24 | 34.22261 | -78.68441 | 30089 ft | 223 kts | 259° |
| 2026-05-04 21:25 | 34.21931 | -78.70264 | 30089 ft | 221 kts | 259° |
| 2026-05-04 21:25 | 34.21602 | -78.72079 | 30086 ft | 220 kts | 259° |
| 2026-05-04 21:25 | 34.21277 | -78.73876 | 30084 ft | 219 kts | 259° |
| 2026-05-04 21:25 | 34.20947 | -78.75697 | 30082 ft | 219 kts | 259° |
| 2026-05-04 21:26 | 34.20617 | -78.77506 | 30084 ft | 221 kts | 259° |
| 2026-05-04 21:26 | 34.20286 | -78.79327 | 30087 ft | 223 kts | 259° |
| 2026-05-04 21:26 | 34.19953 | -78.81158 | 30089 ft | 223 kts | 259° |
| 2026-05-04 21:26 | 34.19626 | -78.82959 | 30089 ft | 222 kts | 259° |
| 2026-05-04 21:27 | 34.19231 | -78.84754 | 30086 ft | 222 kts | 253° |
| 2026-05-04 21:27 | 34.18597 | -78.86454 | 30085 ft | 223 kts | 246° |
| 2026-05-04 21:27 | 34.17735 | -78.88022 | 30083 ft | 226 kts | 238° |
| 2026-05-04 21:27 | 34.16640 | -78.89435 | 30083 ft | 233 kts | 230° |
| 2026-05-04 21:28 | 34.15342 | -78.90629 | 30085 ft | 239 kts | 222° |
| 2026-05-04 21:28 | 34.13961 | -78.91761 | 30090 ft | 240 kts | 223° |
| 2026-05-04 21:28 | 34.12590 | -78.92911 | 30091 ft | 239 kts | 224° |
| 2026-05-04 21:28 | 34.11228 | -78.94047 | 30087 ft | 238 kts | 223° |
| 2026-05-04 21:29 | 34.09873 | -78.95170 | 30087 ft | 236 kts | 223° |
| 2026-05-04 21:29 | 34.08518 | -78.96296 | 30085 ft | 236 kts | 223° |
| 2026-05-04 21:29 | 34.07156 | -78.97426 | 30085 ft | 238 kts | 223° |
| 2026-05-04 21:29 | 34.05786 | -78.98561 | 30086 ft | 240 kts | 223° |
| 2026-05-04 21:30 | 34.04406 | -78.99704 | 30092 ft | 241 kts | 223° |
| 2026-05-04 21:30 | 34.03025 | -79.00849 | 30089 ft | 240 kts | 223° |
| 2026-05-04 21:30 | 34.01654 | -79.01983 | 30088 ft | 238 kts | 223° |
| 2026-05-04 21:30 | 34.00293 | -79.03112 | 30087 ft | 236 kts | 223° |
| 2026-05-04 21:31 | 33.97581 | -79.05359 | 30084 ft | 238 kts | 223° |
| 2026-05-04 21:31 | 33.96212 | -79.06491 | 30089 ft | 239 kts | 223° |
| 2026-05-04 21:31 | 33.94837 | -79.07629 | 30089 ft | 241 kts | 223° |
| 2026-05-04 21:32 | 33.93458 | -79.08770 | 30091 ft | 241 kts | 223° |
| 2026-05-04 21:32 | 33.92077 | -79.09907 | 30089 ft | 239 kts | 223° |
| 2026-05-04 21:32 | 33.90712 | -79.11035 | 30087 ft | 237 kts | 223° |
| 2026-05-04 21:32 | 33.89356 | -79.12154 | 30084 ft | 236 kts | 223° |
| 2026-05-04 21:33 | 33.88000 | -79.13276 | 30084 ft | 238 kts | 223° |
| 2026-05-04 21:33 | 33.86628 | -79.14410 | 30087 ft | 240 kts | 223° |
| 2026-05-04 21:33 | 33.85243 | -79.15550 | 30088 ft | 242 kts | 223° |
| 2026-05-04 21:33 | 33.83859 | -79.16687 | 30089 ft | 240 kts | 223° |
| 2026-05-04 21:34 | 33.82487 | -79.17817 | 30090 ft | 238 kts | 223° |
| 2026-05-04 21:34 | 33.81143 | -79.18926 | 30086 ft | 236 kts | 223° |
| 2026-05-04 21:34 | 33.79785 | -79.20045 | 30084 ft | 237 kts | 223° |
| 2026-05-04 21:34 | 33.78414 | -79.21174 | 30085 ft | 239 kts | 223° |
| 2026-05-04 21:35 | 33.77033 | -79.22309 | 30090 ft | 241 kts | 223° |
| 2026-05-04 21:35 | 33.75645 | -79.23447 | 30088 ft | 241 kts | 223° |
| 2026-05-04 21:35 | 33.74265 | -79.24581 | 30092 ft | 240 kts | 223° |
| 2026-05-04 21:35 | 33.72894 | -79.25708 | 30088 ft | 238 kts | 223° |
| 2026-05-04 21:36 | 33.71531 | -79.26827 | 30086 ft | 237 kts | 223° |
| 2026-05-04 21:36 | 33.70172 | -79.27944 | 30084 ft | 237 kts | 223° |
| 2026-05-04 21:36 | 33.68807 | -79.29067 | 30087 ft | 239 kts | 223° |
| 2026-05-04 21:36 | 33.67430 | -79.30198 | 30089 ft | 241 kts | 223° |
| 2026-05-04 21:37 | 33.66060 | -79.31355 | 30092 ft | 241 kts | 224° |
| 2026-05-04 21:37 | 33.64702 | -79.32524 | 30086 ft | 240 kts | 224° |
| 2026-05-04 21:37 | 33.63346 | -79.33679 | 30085 ft | 238 kts | 224° |
| 2026-05-04 21:37 | 33.62002 | -79.34820 | 30086 ft | 236 kts | 224° |
| 2026-05-04 21:38 | 33.60663 | -79.35957 | 30083 ft | 237 kts | 224° |
| 2026-05-04 21:38 | 33.59314 | -79.37105 | 30081 ft | 239 kts | 224° |
| 2026-05-04 21:38 | 33.57953 | -79.38260 | 30086 ft | 240 kts | 223° |
| 2026-05-04 21:38 | 33.56585 | -79.39418 | 30090 ft | 241 kts | 223° |
| 2026-05-04 21:39 | 33.55219 | -79.40575 | 30090 ft | 239 kts | 224° |
| 2026-05-04 21:39 | 33.53866 | -79.41723 | 30087 ft | 238 kts | 224° |
| 2026-05-04 21:39 | 33.52521 | -79.42861 | 30084 ft | 237 kts | 224° |
| 2026-05-04 21:39 | 33.51171 | -79.44007 | 30084 ft | 238 kts | 224° |
| 2026-05-04 21:40 | 33.49817 | -79.45154 | 30086 ft | 239 kts | 224° |
| 2026-05-04 21:40 | 33.48456 | -79.46309 | 30087 ft | 241 kts | 224° |
| 2026-05-04 21:40 | 33.47084 | -79.47469 | 30090 ft | 242 kts | 224° |
| 2026-05-04 21:40 | 33.46173 | -79.48238 | 30090 ft | 241 kts | 224° |
| 2026-05-04 21:41 | 33.44807 | -79.49393 | 30088 ft | 239 kts | 224° |
| 2026-05-04 21:41 | 33.43454 | -79.50538 | 30088 ft | 238 kts | 224° |
| 2026-05-04 21:41 | 33.42108 | -79.51677 | 30085 ft | 237 kts | 224° |
| 2026-05-04 21:41 | 33.40759 | -79.52817 | 30084 ft | 238 kts | 224° |
| 2026-05-04 21:42 | 33.39404 | -79.53964 | 30086 ft | 240 kts | 224° |
| 2026-05-04 21:42 | 33.38036 | -79.55117 | 30088 ft | 242 kts | 224° |
| 2026-05-04 21:42 | 33.36658 | -79.56281 | 30091 ft | 242 kts | 224° |
| 2026-05-04 21:42 | 33.35288 | -79.57431 | 30089 ft | 240 kts | 224° |
| 2026-05-04 21:43 | 33.33931 | -79.58577 | 30089 ft | 238 kts | 224° |
| 2026-05-04 21:43 | 33.32583 | -79.59714 | 30085 ft | 237 kts | 224° |
| 2026-05-04 21:43 | 33.31235 | -79.60849 | 30084 ft | 238 kts | 224° |
| 2026-05-04 21:43 | 33.29875 | -79.61995 | 30085 ft | 240 kts | 224° |
| 2026-05-04 21:44 | 33.28505 | -79.63149 | 30089 ft | 242 kts | 224° |
| 2026-05-04 21:44 | 33.27130 | -79.64303 | 30092 ft | 242 kts | 223° |
| 2026-05-04 21:44 | 33.25758 | -79.65455 | 30090 ft | 240 kts | 224° |
| 2026-05-04 21:44 | 33.24399 | -79.66597 | 30089 ft | 237 kts | 224° |
| 2026-05-04 21:45 | 33.23050 | -79.67732 | 30085 ft | 237 kts | 224° |
| 2026-05-04 21:45 | 33.21699 | -79.68870 | 30086 ft | 239 kts | 224° |
| 2026-05-04 21:45 | 33.20336 | -79.70014 | 30088 ft | 240 kts | 224° |
| 2026-05-04 21:45 | 33.18986 | -79.71149 | 30090 ft | 241 kts | 224° |
| 2026-05-04 21:46 | 33.17613 | -79.72299 | 30092 ft | 241 kts | 224° |
| 2026-05-04 21:46 | 33.16246 | -79.73445 | 30091 ft | 239 kts | 224° |
| 2026-05-04 21:46 | 33.14895 | -79.74580 | 30088 ft | 237 kts | 224° |
| 2026-05-04 21:46 | 33.13548 | -79.75709 | 30085 ft | 236 kts | 224° |
| 2026-05-04 21:47 | 33.12198 | -79.76841 | 30084 ft | 238 kts | 224° |
| 2026-05-04 21:47 | 33.10840 | -79.77980 | 30086 ft | 239 kts | 224° |
| 2026-05-04 21:47 | 33.09473 | -79.79124 | 30089 ft | 241 kts | 224° |
| 2026-05-04 21:47 | 33.08096 | -79.80275 | 30090 ft | 241 kts | 224° |
| 2026-05-04 21:48 | 33.06726 | -79.81420 | 30091 ft | 239 kts | 224° |
| 2026-05-04 21:48 | 33.05372 | -79.82550 | 30089 ft | 238 kts | 224° |
| 2026-05-04 21:48 | 33.04020 | -79.83679 | 30087 ft | 236 kts | 224° |
| 2026-05-04 21:48 | 33.02671 | -79.84810 | 30086 ft | 238 kts | 224° |
| 2026-05-04 21:49 | 33.01313 | -79.85944 | 30087 ft | 239 kts | 224° |
| 2026-05-04 21:49 | 32.99946 | -79.87084 | 30087 ft | 240 kts | 224° |
| 2026-05-04 21:49 | 32.98574 | -79.88231 | 30091 ft | 241 kts | 224° |
| 2026-05-04 21:49 | 32.97199 | -79.89377 | 30090 ft | 241 kts | 223° |
| 2026-05-04 21:50 | 32.95827 | -79.90519 | 30089 ft | 239 kts | 224° |
| 2026-05-04 21:50 | 32.94471 | -79.91650 | 30089 ft | 237 kts | 224° |
| 2026-05-04 21:50 | 32.93122 | -79.92776 | 30087 ft | 237 kts | 224° |
| 2026-05-04 21:50 | 32.91788 | -79.93889 | 30086 ft | 238 kts | 224° |
| 2026-05-04 21:51 | 32.90411 | -79.95038 | 30088 ft | 240 kts | 224° |
| 2026-05-04 21:51 | 32.89041 | -79.96180 | 30089 ft | 242 kts | 223° |
| 2026-05-04 21:51 | 32.87662 | -79.97324 | 30093 ft | 240 kts | 224° |
| 2026-05-04 21:51 | 32.86317 | -79.98441 | 30089 ft | 238 kts | 224° |
| 2026-05-04 21:52 | 32.84966 | -79.99563 | 30088 ft | 236 kts | 224° |
| 2026-05-04 21:52 | 32.83624 | -80.00679 | 30085 ft | 236 kts | 224° |
| 2026-05-04 21:52 | 32.82269 | -80.01809 | 30086 ft | 239 kts | 224° |
| 2026-05-04 21:52 | 32.80903 | -80.02943 | 30097 ft | 241 kts | 224° |
| 2026-05-04 21:53 | 32.79525 | -80.04085 | 30099 ft | 243 kts | 224° |
| 2026-05-04 21:53 | 32.78141 | -80.05232 | 30103 ft | 242 kts | 224° |
| 2026-05-04 21:53 | 32.76770 | -80.06366 | 30101 ft | 239 kts | 224° |
| 2026-05-04 21:53 | 32.75410 | -80.07495 | 30098 ft | 237 kts | 224° |
| 2026-05-04 21:54 | 32.74057 | -80.08618 | 30094 ft | 238 kts | 224° |
| 2026-05-04 21:54 | 32.72699 | -80.09748 | 30096 ft | 240 kts | 224° |
| 2026-05-04 21:54 | 32.71324 | -80.10884 | 30098 ft | 242 kts | 224° |
| 2026-05-04 21:54 | 32.69940 | -80.12029 | 30100 ft | 242 kts | 224° |
| 2026-05-04 21:55 | 32.68560 | -80.13171 | 30102 ft | 241 kts | 224° |
| 2026-05-04 21:55 | 32.67192 | -80.14303 | 30098 ft | 239 kts | 224° |
| 2026-05-04 21:55 | 32.65833 | -80.15429 | 30099 ft | 238 kts | 224° |
| 2026-05-04 21:55 | 32.64477 | -80.16551 | 30101 ft | 238 kts | 224° |
| 2026-05-04 21:56 | 32.63113 | -80.17679 | 30100 ft | 239 kts | 224° |
| 2026-05-04 21:56 | 32.61743 | -80.18811 | 30100 ft | 241 kts | 224° |
| 2026-05-04 21:56 | 32.60362 | -80.19949 | 30104 ft | 242 kts | 224° |
| 2026-05-04 21:56 | 32.58976 | -80.21093 | 30108 ft | 242 kts | 224° |
| 2026-05-04 21:57 | 32.57596 | -80.22229 | 30107 ft | 240 kts | 224° |
| 2026-05-04 21:57 | 32.56233 | -80.23354 | 30103 ft | 238 kts | 224° |
| 2026-05-04 21:57 | 32.54875 | -80.24474 | 30101 ft | 238 kts | 224° |
| 2026-05-04 21:57 | 32.53516 | -80.25597 | 30098 ft | 239 kts | 224° |
| 2026-05-04 21:58 | 32.52148 | -80.26723 | 30104 ft | 240 kts | 223° |
| 2026-05-04 21:58 | 32.50904 | -80.27978 | 30098 ft | 230 kts | 239° |
| 2026-05-04 21:58 | 32.50013 | -80.29529 | 30107 ft | 228 kts | 243° |
| 2026-05-04 21:58 | 32.49096 | -80.31065 | 30112 ft | 230 kts | 239° |
| 2026-05-04 21:59 | 32.48077 | -80.32548 | 30106 ft | 233 kts | 237° |
| 2026-05-04 21:59 | 32.47047 | -80.34012 | 30109 ft | 230 kts | 238° |
| 2026-05-04 21:59 | 32.46039 | -80.35481 | 30104 ft | 229 kts | 238° |
| 2026-05-04 21:59 | 32.45044 | -80.36939 | 30102 ft | 227 kts | 238° |
| 2026-05-04 22:00 | 32.44049 | -80.38392 | 30105 ft | 228 kts | 238° |
| 2026-05-04 22:00 | 32.43044 | -80.39859 | 30108 ft | 230 kts | 238° |
| 2026-05-04 22:00 | 32.42031 | -80.41333 | 30109 ft | 232 kts | 238° |
| 2026-05-04 22:00 | 32.41012 | -80.42816 | 30112 ft | 232 kts | 238° |
| 2026-05-04 22:01 | 32.39999 | -80.44289 | 30111 ft | 230 kts | 238° |
| 2026-05-04 22:01 | 32.38992 | -80.45754 | 30109 ft | 229 kts | 238° |
| 2026-05-04 22:01 | 32.37990 | -80.47208 | 30110 ft | 227 kts | 238° |
| 2026-05-04 22:01 | 32.36994 | -80.48660 | 30111 ft | 228 kts | 238° |
| 2026-05-04 22:02 | 32.35986 | -80.50124 | 30113 ft | 230 kts | 238° |
| 2026-05-04 22:02 | 32.34972 | -80.51597 | 30117 ft | 232 kts | 238° |
| 2026-05-04 22:02 | 32.33951 | -80.53077 | 30118 ft | 232 kts | 238° |
| 2026-05-04 22:02 | 32.32934 | -80.54551 | 30118 ft | 230 kts | 238° |
| 2026-05-04 22:03 | 32.31929 | -80.56008 | 30115 ft | 228 kts | 238° |
| 2026-05-04 22:03 | 32.30932 | -80.57457 | 30112 ft | 227 kts | 238° |
| 2026-05-04 22:03 | 32.29933 | -80.58906 | 30122 ft | 228 kts | 238° |
| 2026-05-04 22:03 | 32.28925 | -80.60371 | 30125 ft | 231 kts | 238° |
| 2026-05-04 22:04 | 32.27905 | -80.61847 | 30127 ft | 233 kts | 238° |
| 2026-05-04 22:04 | 32.26883 | -80.63324 | 30128 ft | 231 kts | 238° |
| 2026-05-04 22:04 | 32.25873 | -80.64787 | 30126 ft | 229 kts | 238° |
| 2026-05-04 22:04 | 32.24884 | -80.66218 | 30128 ft | 227 kts | 238° |
| 2026-05-04 22:05 | 32.23877 | -80.67661 | 30129 ft | 229 kts | 236° |
| 2026-05-04 22:05 | 32.22683 | -80.68956 | 30130 ft | 237 kts | 226° |
| 2026-05-04 22:05 | 32.21274 | -80.70022 | 30131 ft | 245 kts | 217° |
| 2026-05-04 22:05 | 32.19670 | -80.70802 | 30132 ft | 255 kts | 208° |
| 2026-05-04 22:06 | 32.17970 | -80.71421 | 30136 ft | 255 kts | 208° |
| 2026-05-04 22:06 | 32.16288 | -80.72060 | 30136 ft | 253 kts | 208° |
| 2026-05-04 22:06 | 32.14617 | -80.72695 | 30134 ft | 251 kts | 208° |
| 2026-05-04 22:06 | 32.12957 | -80.73321 | 30132 ft | 250 kts | 208° |
| 2026-05-04 22:07 | 32.11300 | -80.73945 | 30130 ft | 250 kts | 208° |
| 2026-05-04 22:07 | 32.09637 | -80.74572 | 30131 ft | 252 kts | 208° |
| 2026-05-04 22:07 | 32.07960 | -80.75205 | 30133 ft | 254 kts | 208° |
| 2026-05-04 22:07 | 32.06273 | -80.75838 | 30127 ft | 255 kts | 208° |
| 2026-05-04 22:08 | 32.04586 | -80.76470 | 30128 ft | 253 kts | 208° |
| 2026-05-04 22:08 | 32.02916 | -80.77099 | 30118 ft | 251 kts | 208° |
| 2026-05-04 22:08 | 32.01255 | -80.77723 | 30112 ft | 250 kts | 208° |
| 2026-05-04 22:08 | 31.99600 | -80.78349 | 30113 ft | 250 kts | 208° |
| 2026-05-04 22:09 | 31.97934 | -80.78976 | 30114 ft | 252 kts | 208° |
| 2026-05-04 22:09 | 31.96256 | -80.79605 | 30115 ft | 254 kts | 208° |
| 2026-05-04 22:09 | 31.94572 | -80.80238 | 30107 ft | 254 kts | 208° |
| 2026-05-04 22:09 | 31.92892 | -80.80865 | 30106 ft | 252 kts | 208° |
| 2026-05-04 22:10 | 31.91228 | -80.81489 | 30102 ft | 250 kts | 209° |
| 2026-05-04 22:10 | 31.89575 | -80.82110 | 30099 ft | 249 kts | 209° |
| 2026-05-04 22:10 | 31.87916 | -80.82733 | 30101 ft | 251 kts | 209° |
| 2026-05-04 22:10 | 31.86243 | -80.83361 | 30101 ft | 253 kts | 209° |
| 2026-05-04 22:11 | 31.84559 | -80.83992 | 30100 ft | 255 kts | 208° |
| 2026-05-04 22:11 | 31.82871 | -80.84619 | 30102 ft | 253 kts | 208° |
| 2026-05-04 22:11 | 31.81201 | -80.85242 | 30098 ft | 251 kts | 209° |
| 2026-05-04 22:11 | 31.79544 | -80.85863 | 30095 ft | 249 kts | 209° |
| 2026-05-04 22:12 | 31.77897 | -80.86481 | 30094 ft | 249 kts | 209° |
| 2026-05-04 22:12 | 31.76237 | -80.87103 | 30096 ft | 252 kts | 209° |
| 2026-05-04 22:12 | 31.74559 | -80.87728 | 30099 ft | 253 kts | 209° |
| 2026-05-04 22:12 | 31.72877 | -80.88358 | 30099 ft | 254 kts | 209° |
| 2026-05-04 22:13 | 31.71221 | -80.88975 | 30100 ft | 252 kts | 209° |
| 2026-05-04 22:13 | 31.69548 | -80.89598 | 30100 ft | 251 kts | 209° |
| 2026-05-04 22:13 | 31.67893 | -80.90217 | 30096 ft | 249 kts | 209° |
| 2026-05-04 22:13 | 31.66244 | -80.90835 | 30095 ft | 249 kts | 209° |
| 2026-05-04 22:14 | 31.64584 | -80.91454 | 30094 ft | 252 kts | 209° |
| 2026-05-04 22:14 | 31.62910 | -80.92078 | 30099 ft | 253 kts | 209° |
| 2026-05-04 22:14 | 31.61225 | -80.92705 | 30102 ft | 254 kts | 209° |
| 2026-05-04 22:14 | 31.59543 | -80.93330 | 30102 ft | 252 kts | 209° |
| 2026-05-04 22:15 | 31.57879 | -80.93948 | 30100 ft | 250 kts | 209° |
| 2026-05-04 22:15 | 31.56220 | -80.94565 | 30098 ft | 249 kts | 209° |
| 2026-05-04 22:15 | 31.54572 | -80.95180 | 30094 ft | 250 kts | 209° |
| 2026-05-04 22:15 | 31.52903 | -80.95803 | 30097 ft | 253 kts | 209° |
| 2026-05-04 22:16 | 31.51208 | -80.96432 | 30098 ft | 255 kts | 209° |
| 2026-05-04 22:16 | 31.49522 | -80.97054 | 30099 ft | 253 kts | 209° |
| 2026-05-04 22:16 | 31.47849 | -80.97674 | 30099 ft | 251 kts | 209° |
| 2026-05-04 22:16 | 31.46192 | -80.98290 | 30095 ft | 249 kts | 209° |
| 2026-05-04 22:17 | 31.44535 | -80.98907 | 30093 ft | 251 kts | 209° |
| 2026-05-04 22:17 | 31.42867 | -80.99529 | 30094 ft | 253 kts | 209° |
| 2026-05-04 22:17 | 31.41179 | -81.00154 | 30098 ft | 255 kts | 209° |
| 2026-05-04 22:17 | 31.39490 | -81.00779 | 30098 ft | 254 kts | 209° |
| 2026-05-04 22:18 | 31.37812 | -81.01397 | 30096 ft | 252 kts | 209° |
| 2026-05-04 22:18 | 31.36144 | -81.02016 | 30097 ft | 250 kts | 209° |
| 2026-05-04 22:18 | 31.34492 | -81.02630 | 30092 ft | 250 kts | 209° |
| 2026-05-04 22:18 | 31.32828 | -81.03249 | 30091 ft | 251 kts | 209° |
| 2026-05-04 22:19 | 31.31158 | -81.03868 | 30097 ft | 253 kts | 209° |
| 2026-05-04 22:19 | 31.29475 | -81.04489 | 30099 ft | 254 kts | 209° |
| 2026-05-04 22:19 | 31.27787 | -81.05113 | 30096 ft | 254 kts | 209° |
| 2026-05-04 22:19 | 31.26063 | -81.05614 | 30097 ft | 260 kts | 200° |
| 2026-05-04 22:20 | 31.24228 | -81.05741 | 30091 ft | 269 kts | 190° |
| 2026-05-04 22:20 | 31.22339 | -81.05462 | 30092 ft | 279 kts | 180° |
| 2026-05-04 22:20 | 31.20445 | -81.05094 | 30087 ft | 271 kts | 189° |
| 2026-05-04 22:20 | 31.18633 | -81.05245 | 30095 ft | 263 kts | 200° |
| 2026-05-04 22:21 | 31.16806 | -81.05508 | 30100 ft | 266 kts | 198° |
| 2026-05-04 22:21 | 31.14939 | -81.05701 | 30104 ft | 266 kts | 197° |
| 2026-05-04 22:21 | 31.13127 | -81.05881 | 30101 ft | 262 kts | 197° |
| 2026-05-04 22:21 | 31.11321 | -81.06082 | 30095 ft | 260 kts | 198° |
| 2026-05-04 22:22 | 31.09513 | -81.06291 | 30093 ft | 262 kts | 198° |
| 2026-05-04 22:22 | 31.07682 | -81.06493 | 30098 ft | 265 kts | 198° |
| 2026-05-04 22:22 | 31.05847 | -81.06691 | 30102 ft | 266 kts | 198° |
| 2026-05-04 22:22 | 31.04004 | -81.06891 | 30103 ft | 265 kts | 198° |
| 2026-05-04 22:23 | 31.02180 | -81.07092 | 30104 ft | 260 kts | 198° |
| 2026-05-04 22:23 | 31.00439 | -81.07272 | 30094 ft | 243 kts | 198° |
| 2026-05-04 22:23 | 30.98782 | -81.07458 | 30072 ft | 239 kts | 199° |
| 2026-05-04 22:23 | 30.97097 | -81.07665 | 30072 ft | 247 kts | 199° |
| 2026-05-04 22:24 | 30.95371 | -81.07853 | 30081 ft | 252 kts | 198° |
| 2026-05-04 22:24 | 30.93614 | -81.08035 | 30086 ft | 253 kts | 198° |
| 2026-05-04 22:24 | 30.91860 | -81.08225 | 30088 ft | 253 kts | 198° |
| 2026-05-04 22:24 | 30.90113 | -81.08425 | 30088 ft | 250 kts | 200° |
| 2026-05-04 22:25 | 30.88394 | -81.08678 | 30087 ft | 249 kts | 200° |
| 2026-05-04 22:25 | 30.86665 | -81.08877 | 30086 ft | 251 kts | 198° |
| 2026-05-04 22:25 | 30.84928 | -81.09051 | 30085 ft | 250 kts | 198° |
| 2026-05-04 22:25 | 30.83216 | -81.09274 | 30082 ft | 243 kts | 204° |
| 2026-05-04 22:26 | 30.81627 | -81.09817 | 30082 ft | 234 kts | 214° |
| 2026-05-04 22:26 | 30.80192 | -81.10643 | 30084 ft | 227 kts | 223° |
| 2026-05-04 22:26 | 30.78923 | -81.11697 | 30088 ft | 223 kts | 229° |
| 2026-05-04 22:26 | 30.77679 | -81.12797 | 30089 ft | 225 kts | 227° |
| 2026-05-04 22:27 | 30.76425 | -81.13891 | 30090 ft | 226 kts | 228° |
| 2026-05-04 22:27 | 30.75178 | -81.14994 | 30092 ft | 224 kts | 228° |
| 2026-05-04 22:27 | 30.73941 | -81.16088 | 30090 ft | 223 kts | 228° |
| 2026-05-04 22:27 | 30.72712 | -81.17178 | 30088 ft | 221 kts | 228° |
| 2026-05-04 22:28 | 30.71900 | -81.17896 | 30085 ft | 221 kts | 228° |
| 2026-05-04 22:28 | 30.70679 | -81.18977 | 30084 ft | 221 kts | 228° |
| 2026-05-04 22:28 | 30.69452 | -81.20063 | 30086 ft | 223 kts | 228° |
| 2026-05-04 22:28 | 30.68213 | -81.21158 | 30089 ft | 224 kts | 228° |
| 2026-05-04 22:29 | 30.66969 | -81.22255 | 30091 ft | 225 kts | 228° |
| 2026-05-04 22:29 | 30.65726 | -81.23351 | 30090 ft | 224 kts | 228° |
| 2026-05-04 22:29 | 30.64487 | -81.24443 | 30090 ft | 223 kts | 228° |
| 2026-05-04 22:29 | 30.63256 | -81.25530 | 30087 ft | 223 kts | 228° |
| 2026-05-04 22:30 | 30.62005 | -81.26642 | 30090 ft | 229 kts | 228° |
| 2026-05-04 22:30 | 30.60722 | -81.27773 | 30097 ft | 234 kts | 228° |
| 2026-05-04 22:30 | 30.59448 | -81.28972 | 30101 ft | 235 kts | 233° |
| 2026-05-04 22:30 | 30.58377 | -81.30396 | 30110 ft | 234 kts | 241° |
| 2026-05-04 22:31 | 30.57526 | -81.32004 | 30118 ft | 234 kts | 249° |
| 2026-05-04 22:31 | 30.56919 | -81.33755 | 30122 ft | 234 kts | 257° |
| 2026-05-04 22:31 | 30.56573 | -81.35602 | 30124 ft | 235 kts | 265° |
| 2026-05-04 22:31 | 30.56503 | -81.37507 | 30128 ft | 237 kts | 272° |
| 2026-05-04 22:32 | 30.56716 | -81.39412 | 30130 ft | 240 kts | 280° |
| 2026-05-04 22:32 | 30.57217 | -81.41274 | 30132 ft | 244 kts | 288° |
| 2026-05-04 22:32 | 30.58009 | -81.43045 | 30134 ft | 250 kts | 297° |
| 2026-05-04 22:32 | 30.59090 | -81.44658 | 30135 ft | 257 kts | 306° |
| 2026-05-04 22:33 | 30.60447 | -81.46052 | 30136 ft | 265 kts | 315° |
| 2026-05-04 22:33 | 30.62069 | -81.47158 | 30136 ft | 276 kts | 325° |
| 2026-05-04 22:33 | 30.63915 | -81.47895 | 30135 ft | 287 kts | 335° |
| 2026-05-04 22:33 | 30.65942 | -81.48185 | 30134 ft | 301 kts | 347° |
| 2026-05-04 22:34 | 30.68039 | -81.47993 | 30134 ft | 309 kts | 356° |
| 2026-05-04 22:34 | 30.72304 | -81.47419 | 30135 ft | 308 kts | 355° |
| 2026-05-04 22:35 | 30.76568 | -81.46835 | 30135 ft | 308 kts | 355° |
| 2026-05-04 22:35 | 30.80817 | -81.46051 | 30123 ft | 322 kts | 9° |
| 2026-05-04 22:35 | 30.82857 | -81.44832 | 30118 ft | 337 kts | 24° |
| 2026-05-04 22:36 | 30.84630 | -81.42978 | 30111 ft | 351 kts | 41° |
| 2026-05-04 22:36 | 30.85960 | -81.40552 | 30098 ft | 362 kts | 60° |
| 2026-05-04 22:36 | 30.86680 | -81.37724 | 30086 ft | 369 kts | 79° |
| 2026-05-04 22:36 | 30.86686 | -81.34742 | 30073 ft | 370 kts | 98° |
| 2026-05-04 22:37 | 30.85973 | -81.31895 | 30062 ft | 365 kts | 118° |
| 2026-05-04 22:37 | 30.84629 | -81.29436 | 30051 ft | 356 kts | 137° |
| 2026-05-04 22:37 | 30.82823 | -81.27561 | 30043 ft | 343 kts | 155° |
| 2026-05-04 22:37 | 30.80739 | -81.26354 | 30037 ft | 328 kts | 171° |
| 2026-05-04 22:38 | 30.78565 | -81.25825 | 30033 ft | 312 kts | 186° |
| 2026-05-04 22:38 | 30.76451 | -81.25906 | 30031 ft | 299 kts | 198° |
| 2026-05-04 22:38 | 30.74388 | -81.26200 | 30038 ft | 299 kts | 198° |
| 2026-05-04 22:38 | 30.72316 | -81.26473 | 30034 ft | 299 kts | 198° |
| 2026-05-04 22:39 | 30.70250 | -81.26757 | 30034 ft | 299 kts | 198° |
| 2026-05-04 22:39 | 30.68184 | -81.27048 | 30034 ft | 299 kts | 198° |
| 2026-05-04 22:39 | 30.66120 | -81.27334 | 30036 ft | 299 kts | 198° |
| 2026-05-04 22:39 | 30.64049 | -81.27618 | 30034 ft | 299 kts | 198° |
| 2026-05-04 22:40 | 30.61994 | -81.27959 | 29925 ft | 296 kts | 200° |
| 2026-05-04 22:40 | 30.57818 | -81.28025 | 29923 ft | 305 kts | 190° |
| 2026-05-04 22:40 | 30.55689 | -81.27929 | 29810 ft | 309 kts | 188° |
| 2026-05-04 22:41 | 30.53533 | -81.27798 | 29466 ft | 309 kts | 188° |
| 2026-05-04 22:41 | 30.51405 | -81.27675 | 29090 ft | 304 kts | 188° |
| 2026-05-04 22:41 | 30.49293 | -81.27575 | 28572 ft | 305 kts | 188° |
| 2026-05-04 22:41 | 30.47169 | -81.27477 | 27997 ft | 307 kts | 188° |
| 2026-05-04 22:42 | 30.45030 | -81.27361 | 27443 ft | 308 kts | 187° |
| 2026-05-04 22:42 | 30.42907 | -81.27243 | 27049 ft | 303 kts | 187° |
| 2026-05-04 22:42 | 30.40791 | -81.27140 | 26644 ft | 306 kts | 187° |
| 2026-05-04 22:42 | 30.38648 | -81.27038 | 26237 ft | 311 kts | 186° |
| 2026-05-04 22:43 | 30.36475 | -81.26922 | 25824 ft | 313 kts | 186° |
| 2026-05-04 22:43 | 30.34294 | -81.26805 | 25402 ft | 313 kts | 186° |
| 2026-05-04 22:43 | 30.32119 | -81.26696 | 24983 ft | 313 kts | 186° |
| 2026-05-04 22:43 | 30.29951 | -81.26587 | 24566 ft | 312 kts | 186° |
| 2026-05-04 22:44 | 30.27784 | -81.26475 | 24154 ft | 312 kts | 185° |
| 2026-05-04 22:44 | 30.25605 | -81.26358 | 23727 ft | 316 kts | 185° |
| 2026-05-04 22:44 | 30.23400 | -81.26214 | 23293 ft | 318 kts | 184° |
| 2026-05-04 22:44 | 30.21183 | -81.26068 | 22855 ft | 319 kts | 184° |
| 2026-05-04 22:45 | 30.18975 | -81.25934 | 22418 ft | 317 kts | 184° |
| 2026-05-04 22:45 | 30.14586 | -81.25665 | 21551 ft | 316 kts | 183° |
| 2026-05-04 22:45 | 30.12383 | -81.25529 | 21118 ft | 318 kts | 183° |
| 2026-05-04 22:46 | 30.10176 | -81.25394 | 20682 ft | 319 kts | 183° |
| 2026-05-04 22:46 | 30.07957 | -81.25257 | 20245 ft | 319 kts | 182° |
| 2026-05-04 22:46 | 30.05737 | -81.25118 | 19805 ft | 319 kts | 182° |
| 2026-05-04 22:46 | 30.03521 | -81.24982 | 19369 ft | 319 kts | 182° |
| 2026-05-04 22:47 | 30.01300 | -81.24846 | 18929 ft | 319 kts | 182° |
| 2026-05-04 22:47 | 29.99091 | -81.24710 | 18492 ft | 318 kts | 182° |
| 2026-05-04 22:47 | 29.96872 | -81.24575 | 18038 ft | 318 kts | 182° |
| 2026-05-04 22:47 | 29.94658 | -81.24439 | 17542 ft | 319 kts | 182° |
| 2026-05-04 22:48 | 29.92470 | -81.24304 | 17103 ft | 318 kts | 181° |
| 2026-05-04 22:48 | 29.90266 | -81.24227 | 16669 ft | 317 kts | 183° |
| 2026-05-04 22:48 | 29.88064 | -81.24142 | 16233 ft | 316 kts | 182° |
| 2026-05-04 22:48 | 29.85845 | -81.24050 | 15797 ft | 312 kts | 182° |
| 2026-05-04 22:49 | 29.83714 | -81.23975 | 15377 ft | 309 kts | 182° |
| 2026-05-04 22:49 | 29.81571 | -81.23899 | 14954 ft | 307 kts | 182° |
| 2026-05-04 22:49 | 29.79439 | -81.23820 | 14535 ft | 306 kts | 182° |
| 2026-05-04 22:49 | 29.77313 | -81.23741 | 14110 ft | 305 kts | 182° |
| 2026-05-04 22:50 | 29.75196 | -81.23664 | 13689 ft | 304 kts | 182° |
| 2026-05-04 22:50 | 29.73094 | -81.23588 | 13275 ft | 302 kts | 181° |
| 2026-05-04 22:50 | 29.70998 | -81.23511 | 12862 ft | 300 kts | 181° |
| 2026-05-04 22:50 | 29.68916 | -81.23436 | 12457 ft | 298 kts | 181° |
| 2026-05-04 22:51 | 29.66860 | -81.23360 | 12063 ft | 294 kts | 181° |
| 2026-05-04 22:51 | 29.64833 | -81.23276 | 11807 ft | 291 kts | 180° |
| 2026-05-04 22:51 | 29.62787 | -81.23150 | 11601 ft | 296 kts | 179° |
| 2026-05-04 22:51 | 29.60736 | -81.23022 | 11383 ft | 293 kts | 179° |
| 2026-05-04 22:52 | 29.58712 | -81.22912 | 11160 ft | 291 kts | 179° |
| 2026-05-04 22:52 | 29.56691 | -81.22805 | 10931 ft | 291 kts | 179° |
| 2026-05-04 22:52 | 29.54668 | -81.22690 | 10717 ft | 291 kts | 179° |
| 2026-05-04 22:52 | 29.52650 | -81.22577 | 10498 ft | 290 kts | 179° |
| 2026-05-04 22:53 | 29.50637 | -81.22465 | 10276 ft | 289 kts | 178° |
| 2026-05-04 22:53 | 29.48628 | -81.22355 | 10057 ft | 288 kts | 178° |
| 2026-05-04 22:53 | 29.46626 | -81.22244 | 9836 ft | 288 kts | 178° |
| 2026-05-04 22:53 | 29.44631 | -81.22132 | 9619 ft | 287 kts | 178° |
| 2026-05-04 22:54 | 29.42637 | -81.22022 | 9400 ft | 286 kts | 178° |
| 2026-05-04 22:54 | 29.40653 | -81.21912 | 9180 ft | 285 kts | 178° |
| 2026-05-04 22:54 | 29.38675 | -81.21805 | 8965 ft | 283 kts | 177° |
| 2026-05-04 22:54 | 29.36712 | -81.21694 | 8750 ft | 282 kts | 177° |
| 2026-05-04 22:55 | 29.34744 | -81.21600 | 8527 ft | 285 kts | 178° |
| 2026-05-04 22:55 | 29.32755 | -81.21534 | 8307 ft | 286 kts | 178° |
| 2026-05-04 22:55 | 29.30773 | -81.21454 | 8090 ft | 285 kts | 177° |
| 2026-05-04 22:55 | 29.28797 | -81.21366 | 7872 ft | 284 kts | 177° |
| 2026-05-04 22:56 | 29.26826 | -81.21283 | 7657 ft | 282 kts | 178° |
| 2026-05-04 22:56 | 29.24866 | -81.21206 | 7442 ft | 281 kts | 177° |
| 2026-05-04 22:56 | 29.22921 | -81.21059 | 7230 ft | 280 kts | 176° |
| 2026-05-04 22:56 | 29.20997 | -81.20938 | 7021 ft | 281 kts | 176° |
| 2026-05-04 22:57 | 29.19047 | -81.20817 | 6804 ft | 280 kts | 176° |
| 2026-05-04 22:57 | 29.17086 | -81.20682 | 6587 ft | 278 kts | 175° |
| 2026-05-04 22:57 | 29.15188 | -81.20549 | 6375 ft | 276 kts | 175° |
| 2026-05-04 22:57 | 29.13279 | -81.20420 | 6164 ft | 276 kts | 176° |
| 2026-05-04 22:58 | 29.11358 | -81.20317 | 5947 ft | 275 kts | 178° |
| 2026-05-04 22:58 | 29.09413 | -81.20309 | 5738 ft | 276 kts | 178° |
| 2026-05-04 22:58 | 29.07498 | -81.20287 | 5529 ft | 275 kts | 178° |
| 2026-05-04 22:58 | 29.05592 | -81.20266 | 5317 ft | 273 kts | 178° |
| 2026-05-04 22:59 | 29.03692 | -81.20248 | 5113 ft | 273 kts | 178° |
| 2026-05-04 22:59 | 29.01846 | -81.20466 | 5011 ft | 265 kts | 192° |
| 2026-05-04 22:59 | 29.00151 | -81.21007 | 5004 ft | 243 kts | 193° |
| 2026-05-04 22:59 | 28.98558 | -81.21481 | 4999 ft | 232 kts | 192° |
| 2026-05-04 23:00 | 28.97006 | -81.21938 | 5002 ft | 230 kts | 193° |
| 2026-05-04 23:00 | 28.95458 | -81.22408 | 5002 ft | 231 kts | 193° |
| 2026-05-04 23:00 | 28.93902 | -81.22880 | 5003 ft | 231 kts | 193° |
| 2026-05-04 23:00 | 28.92344 | -81.23350 | 5006 ft | 232 kts | 193° |
| 2026-05-04 23:01 | 28.90817 | -81.23913 | 5001 ft | 232 kts | 203° |
| 2026-05-04 23:01 | 28.89435 | -81.24876 | 4998 ft | 234 kts | 213° |
| 2026-05-04 23:01 | 28.88097 | -81.25928 | 4999 ft | 234 kts | 213° |
| 2026-05-04 23:01 | 28.86758 | -81.26987 | 4999 ft | 234 kts | 213° |
| 2026-05-04 23:02 | 28.85422 | -81.28044 | 4999 ft | 234 kts | 213° |
| 2026-05-04 23:02 | 28.84085 | -81.29099 | 4998 ft | 234 kts | 213° |
| 2026-05-04 23:02 | 28.82758 | -81.30159 | 4996 ft | 233 kts | 216° |
| 2026-05-04 23:02 | 28.81550 | -81.31390 | 4999 ft | 234 kts | 223° |
| 2026-05-04 23:03 | 28.80387 | -81.32690 | 5000 ft | 234 kts | 223° |
| 2026-05-04 23:03 | 28.79222 | -81.33993 | 4998 ft | 234 kts | 223° |
| 2026-05-04 23:03 | 28.78061 | -81.35293 | 4997 ft | 234 kts | 223° |
| 2026-05-04 23:03 | 28.76912 | -81.36577 | 4933 ft | 223 kts | 223° |
| 2026-05-04 23:04 | 28.75819 | -81.37803 | 4671 ft | 225 kts | 223° |
| 2026-05-04 23:04 | 28.74679 | -81.39089 | 4423 ft | 233 kts | 223° |
| 2026-05-04 23:04 | 28.73529 | -81.40389 | 4176 ft | 233 kts | 223° |
| 2026-05-04 23:04 | 28.72380 | -81.41694 | 3927 ft | 233 kts | 223° |
| 2026-05-04 23:05 | 28.71238 | -81.42994 | 3677 ft | 233 kts | 223° |
| 2026-05-04 23:05 | 28.70093 | -81.44302 | 3426 ft | 233 kts | 223° |
| 2026-05-04 23:05 | 28.68805 | -81.45336 | 3158 ft | 227 kts | 196° |
| 2026-05-04 23:05 | 28.67264 | -81.45649 | 2910 ft | 224 kts | 184° |
| 2026-05-04 23:06 | 28.65724 | -81.45849 | 2662 ft | 219 kts | 184° |
| 2026-05-04 23:06 | 28.64238 | -81.46045 | 2409 ft | 213 kts | 183° |
| 2026-05-04 23:06 | 28.62745 | -81.46238 | 2154 ft | 220 kts | 183° |
| 2026-05-04 23:06 | 28.61221 | -81.46433 | 2006 ft | 217 kts | 183° |
| 2026-05-04 23:07 | 28.59745 | -81.46628 | 2004 ft | 209 kts | 183° |
| 2026-05-04 23:07 | 28.58332 | -81.46814 | 1997 ft | 200 kts | 183° |
| 2026-05-04 23:07 | 28.56956 | -81.46998 | 1991 ft | 199 kts | 183° |
| 2026-05-04 23:07 | 28.55574 | -81.47188 | 1992 ft | 200 kts | 182° |
| 2026-05-04 23:08 | 28.54207 | -81.47126 | 1989 ft | 195 kts | 164° |
| 2026-05-04 23:08 | 28.52947 | -81.46599 | 1995 ft | 193 kts | 154° |
| 2026-05-04 23:08 | 28.51709 | -81.46008 | 1996 ft | 193 kts | 154° |
| 2026-05-04 23:08 | 28.50756 | -81.45026 | 1990 ft | 188 kts | 113° |
| 2026-05-04 23:09 | 28.50724 | -81.43559 | 1885 ft | 192 kts | 75° |
| 2026-05-04 23:09 | 28.51245 | -81.42166 | 1660 ft | 191 kts | 66° |
| 2026-05-04 23:09 | 28.51794 | -81.40804 | 1405 ft | 188 kts | 69° |
| 2026-05-04 23:09 | 28.52264 | -81.39433 | 1154 ft | 184 kts | 71° |
| 2026-05-04 23:10 | 28.52690 | -81.38122 | 923 ft | 164 kts | 69° |
| 2026-05-04 23:10 | 28.53104 | -81.37049 | 722 ft | 137 kts | 69° |
| 2026-05-04 23:10 | 28.53450 | -81.36122 | 545 ft | 123 kts | 69° |
| 2026-05-04 23:10 | 28.53756 | -81.35302 | 392 ft | 101 kts | 69° |
| 2026-05-04 23:11 | 28.54015 | -81.34630 | 254 ft | 87 kts | 70° |
| 2026-05-04 23:11 | 28.54249 | -81.34003 | 148 ft | 88 kts | 68° |
| 2026-05-04 23:11 | 28.54488 | -81.33388 | 117 ft | 78 kts | 69° |
| 2026-05-04 23:11 | 28.54648 | -81.32967 | 114 ft | 35 kts | 66° |
| 2026-05-04 23:12 | 28.54690 | -81.32851 | 113 ft | 21 kts | 64° |
| 2026-05-04 23:12 | 28.54758 | -81.32821 | 113 ft | 9 kts | 302° |
| 2026-05-04 23:12 | 28.54778 | -81.32858 | 113 ft | 0 kts | 303° |
| 2026-05-04 23:13 | 28.54782 | -81.32865 | 113 ft | 6 kts | 303° |
| 2026-05-04 23:13 | 28.54811 | -81.32937 | 113 ft | 12 kts | 241° |
| 2026-05-04 23:13 | 28.54768 | -81.33048 | 113 ft | 16 kts | 246° |
| 2026-05-04 23:13 | 28.54733 | -81.33142 | 114 ft | 10 kts | 246° |
| 2026-05-04 23:14 | 28.54722 | -81.33206 | 114 ft | 8 kts | 262° |
| 2026-05-04 23:14 | 28.54715 | -81.33271 | 113 ft | 10 kts | 264° |
| 2026-05-04 23:14 | 28.54707 | -81.33365 | 111 ft | 14 kts | 264° |
| 2026-05-04 23:14 | 28.54697 | -81.33469 | 111 ft | 12 kts | 264° |
| 2026-05-04 23:15 | 28.54690 | -81.33547 | 112 ft | 9 kts | 264° |
| 2026-05-04 23:15 | 28.54719 | -81.33584 | 113 ft | 8 kts | 31° |
| 2026-05-04 23:15 | 28.54763 | -81.33557 | 113 ft | 8 kts | 43° |
| 2026-05-04 23:15 | 28.54803 | -81.33517 | 113 ft | 8 kts | 41° |
| 2026-05-04 23:16 | 28.54843 | -81.33478 | 112 ft | 7 kts | 38° |
| 2026-05-04 23:16 | 28.54873 | -81.33502 | 114 ft | 4 kts | 311° |
| 2026-05-04 23:16 | 28.54890 | -81.33523 | 114 ft | 3 kts | 312° |
| 2026-05-04 23:16 | 28.54894 | -81.33529 | 114 ft | 0 kts | 312° |
| 2026-05-04 23:17 | 28.54899 | -81.33542 | 114 ft | 0 kts | 222° |
| 2026-05-04 23:17 | 28.54899 | -81.33543 | 114 ft | 0 kts | 221° |